Time;durP1;ratioP1;P1;durP2;ratioP2;P2;SDS_P1;SDS_P2;PMS_P1;PMS_P2;Temp;Humidity;BMP_temperature;BMP_pressure;BME280_temperature;BME280_humidity;BME280_pressure;Samples;Min_cycle;Max_cycle;Signal;HPM_P1;HPM_P2
2022/03/29 00:00:18;;;;;;;22.05;14.57;;;6.80;99.90;;;;;;5072904;28;20082;-77
2022/03/29 00:02:44;;;;;;;25.55;15.70;;;6.80;99.90;;;;;;5073998;28;20044;-77
2022/03/29 00:05:10;;;;;;;24.63;16.17;;;6.80;99.90;;;;;;5072668;28;20444;-76
2022/03/29 00:07:35;;;;;;;22.92;16.00;;;6.80;99.90;;;;;;5073976;28;20126;-77
2022/03/29 00:10:05;;;;;;;23.23;13.43;;;6.80;99.90;;;;;;5092070;28;20496;-77
2022/03/29 00:12:35;;;;;;;21.38;14.48;;;6.80;99.90;;;;;;5071903;28;20047;-77
2022/03/29 00:15:02;;;;;;;19.30;14.10;;;6.80;99.90;;;;;;5073850;28;20047;-77
2022/03/29 00:17:28;;;;;;;23.17;15.55;;;6.80;99.90;;;;;;5092215;28;20090;-76
2022/03/29 00:19:53;;;;;;;24.80;15.00;;;6.80;99.90;;;;;;5074046;28;20439;-77
2022/03/29 00:22:19;;;;;;;26.27;14.02;;;6.70;99.90;;;;;;5073865;28;20048;-77
2022/03/29 00:24:47;;;;;;;26.25;14.15;;;6.80;99.90;;;;;;5073649;28;20084;-76
2022/03/29 00:27:13;;;;;;;21.02;13.50;;;6.70;99.90;;;;;;5092089;28;20048;-76
2022/03/29 00:29:38;;;;;;;22.10;12.85;;;6.70;99.90;;;;;;5091993;28;20048;-77
2022/03/29 00:32:04;;;;;;;17.92;12.73;;;6.70;99.90;;;;;;5090763;28;20051;-77
2022/03/29 00:34:30;;;;;;;16.35;11.50;;;6.70;99.90;;;;;;5091752;28;20051;-77
2022/03/29 00:36:56;;;;;;;20.33;13.07;;;6.70;99.90;;;;;;5073471;28;20401;-77
2022/03/29 00:39:21;;;;;;;20.33;12.23;;;6.80;99.90;;;;;;5073062;28;20102;-77
2022/03/29 00:41:47;;;;;;;23.90;13.93;;;6.80;99.90;;;;;;5091707;28;20530;-77
2022/03/29 00:44:15;;;;;;;20.85;13.32;;;6.80;99.90;;;;;;5091879;28;20486;-77
2022/03/29 00:46:41;;;;;;;20.35;12.82;;;6.80;99.90;;;;;;5072980;28;20059;-77
2022/03/29 00:49:07;;;;;;;20.40;14.30;;;6.80;99.90;;;;;;5075464;28;20055;-77
2022/03/29 00:51:34;;;;;;;20.00;13.20;;;6.80;99.90;;;;;;5106937;28;20052;-77
2022/03/29 00:53:59;;;;;;;25.98;14.60;;;6.80;99.90;;;;;;5090398;28;20051;-77
2022/03/29 00:56:25;;;;;;;19.65;13.25;;;6.80;99.90;;;;;;5073732;28;20090;-77
2022/03/29 00:58:51;;;;;;;27.27;14.10;;;6.90;99.90;;;;;;5073118;28;20131;-77
2022/03/29 01:01:17;;;;;;;20.23;13.98;;;6.90;99.90;;;;;;5090908;28;20043;-77
2022/03/29 01:03:43;;;;;;;22.80;13.75;;;6.80;99.90;;;;;;5085328;28;20075;-77
2022/03/29 01:06:08;;;;;;;22.67;13.32;;;6.80;99.90;;;;;;5075182;28;20562;-77
2022/03/29 01:08:35;;;;;;;20.42;13.05;;;6.90;99.90;;;;;;5084763;28;20091;-77
2022/03/29 01:11:02;;;;;;;18.75;12.80;;;6.90;99.90;;;;;;5099678;28;20044;-76
2022/03/29 01:13:27;;;;;;;24.00;14.38;;;6.90;99.90;;;;;;5099059;28;20044;-76
2022/03/29 01:15:53;;;;;;;22.80;13.90;;;6.90;99.90;;;;;;5110185;28;20097;-77
2022/03/29 01:18:20;;;;;;;23.40;14.05;;;6.80;99.90;;;;;;5093024;28;20402;-77
2022/03/29 01:20:49;;;;;;;21.23;14.63;;;6.80;99.90;;;;;;5073322;28;20058;-77
2022/03/29 01:23:16;;;;;;;29.17;15.30;;;6.80;99.90;;;;;;5090776;28;20040;-76
2022/03/29 01:25:43;;;;;;;18.40;14.13;;;6.70;99.90;;;;;;5113272;28;20051;-77
2022/03/29 01:28:11;;;;;;;24.80;16.02;;;6.70;99.90;;;;;;5086614;28;20051;-77
2022/03/29 01:30:37;;;;;;;25.25;16.05;;;6.70;99.90;;;;;;5103569;28;20051;-77
2022/03/29 01:33:07;;;;;;;25.30;17.58;;;6.70;99.90;;;;;;5094630;28;20048;-77
2022/03/29 01:35:33;;;;;;;26.73;16.35;;;6.70;99.90;;;;;;5094202;28;20130;-77
2022/03/29 01:37:59;;;;;;;23.35;14.85;;;6.70;99.90;;;;;;5076691;28;20056;-77
2022/03/29 01:40:28;;;;;;;23.15;16.48;;;6.70;99.90;;;;;;5094865;28;20127;-77
2022/03/29 01:42:56;;;;;;;25.40;18.80;;;6.80;99.90;;;;;;5075331;28;20055;-77
2022/03/29 01:45:25;;;;;;;25.85;16.30;;;6.70;99.90;;;;;;5076449;28;20043;-76
2022/03/29 01:47:51;;;;;;;22.95;15.05;;;7.80;99.90;;;;;;5075734;28;20064;-77
2022/03/29 01:50:16;;;;;;;25.92;15.68;;;6.60;99.90;;;;;;5075760;28;20044;-77
2022/03/29 01:52:46;;;;;;;32.08;17.23;;;6.60;99.90;;;;;;5076416;28;20074;-77
2022/03/29 01:55:14;;;;;;;25.40;15.85;;;6.60;99.90;;;;;;5076442;28;20040;-80
2022/03/29 01:57:39;;;;;;;21.35;15.07;;;6.60;99.90;;;;;;5093566;28;20052;-80
2022/03/29 02:02:53;;;;;;;26.38;16.00;;;6.70;99.90;;;;;;5088269;28;20052;-77
2022/03/29 02:05:20;;;;;;;28.98;17.38;;;6.60;99.90;;;;;;5106265;28;20036;-77
2022/03/29 02:07:45;;;;;;;28.02;16.85;;;6.60;99.90;;;;;;5094243;28;20553;-77
2022/03/29 02:10:15;;;;;;;26.13;17.02;;;6.60;99.90;;;;;;5093795;28;20084;-77
2022/03/29 02:12:41;;;;;;;26.20;16.42;;;6.60;99.90;;;;;;5095569;28;20474;-77
2022/03/29 02:15:07;;;;;;;27.73;17.17;;;6.60;99.90;;;;;;5095803;28;20108;-77
2022/03/29 02:17:33;;;;;;;30.77;17.77;;;6.60;99.90;;;;;;5095743;28;20062;-77
2022/03/29 02:19:58;;;;;;;27.02;16.40;;;6.60;99.90;;;;;;5114221;28;20127;-77
2022/03/29 02:22:24;;;;;;;30.77;16.88;;;6.70;99.90;;;;;;5096000;28;20126;-77
2022/03/29 02:24:49;;;;;;;24.63;16.98;;;6.70;99.90;;;;;;5094938;28;20135;-77
2022/03/29 02:27:15;;;;;;;25.17;16.75;;;6.60;99.90;;;;;;5114411;28;20043;-77
2022/03/29 02:29:40;;;;;;;32.30;18.58;;;6.60;99.90;;;;;;5095936;28;20043;-77
2022/03/29 02:32:06;;;;;;;26.48;16.20;;;6.60;99.90;;;;;;5094594;28;20048;-76
2022/03/29 02:34:32;;;;;;;24.85;16.35;;;6.50;99.90;;;;;;5113097;28;20042;-76
2022/03/29 02:36:58;;;;;;;29.20;16.52;;;6.60;99.90;;;;;;5113850;28;20079;-77
2022/03/29 02:39:23;;;;;;;26.98;17.30;;;6.50;99.90;;;;;;5094727;28;20394;-77
2022/03/29 02:41:49;;;;;;;26.80;16.15;;;6.50;99.90;;;;;;5113810;28;20100;-78
2022/03/29 02:44:14;;;;;;;28.38;16.05;;;6.50;99.90;;;;;;5114011;28;20444;-77
2022/03/29 02:46:40;;;;;;;30.23;18.42;;;6.50;99.90;;;;;;5113062;28;20039;-77
2022/03/29 02:49:06;;;;;;;24.08;16.27;;;6.40;99.90;;;;;;5113349;28;20130;-77
2022/03/29 02:51:31;;;;;;;27.98;17.05;;;6.50;99.90;;;;;;5113783;28;20048;-77
2022/03/29 02:53:57;;;;;;;26.08;16.73;;;6.40;99.90;;;;;;5094323;28;20036;-77
2022/03/29 02:56:23;;;;;;;29.20;17.60;;;6.50;99.90;;;;;;5095443;28;20122;-77
2022/03/29 02:58:48;;;;;;;25.25;17.98;;;6.50;99.90;;;;;;5113211;28;20036;-78
2022/03/29 03:01:14;;;;;;;24.63;16.45;;;6.50;99.90;;;;;;5112678;28;20047;-77
2022/03/29 03:03:39;;;;;;;30.83;15.57;;;6.50;99.90;;;;;;5094962;28;20051;-77
2022/03/29 03:06:05;;;;;;;29.17;17.25;;;6.60;99.90;;;;;;5113173;28;20043;-78
2022/03/29 03:08:31;;;;;;;28.55;16.15;;;6.60;99.90;;;;;;5094483;28;20055;-77
2022/03/29 03:10:56;;;;;;;26.50;15.77;;;6.60;99.90;;;;;;5095110;28;20050;-76
2022/03/29 03:13:22;;;;;;;23.95;16.40;;;6.60;99.90;;;;;;5095898;28;20132;-77
2022/03/29 03:15:48;;;;;;;27.15;16.95;;;6.60;99.90;;;;;;5094864;28;20093;-77
2022/03/29 03:18:13;;;;;;;29.60;17.65;;;6.60;99.90;;;;;;5095142;28;20379;-76
2022/03/29 03:20:39;;;;;;;26.90;15.73;;;6.60;99.90;;;;;;5094338;28;20048;-76
2022/03/29 03:23:05;;;;;;;25.05;15.55;;;6.60;99.90;;;;;;5094511;28;20050;-76
2022/03/29 03:25:31;;;;;;;35.03;17.70;;;6.60;99.90;;;;;;5113348;28;20104;-77
2022/03/29 03:27:56;;;;;;;26.33;16.15;;;6.60;99.90;;;;;;5094039;28;20046;-77
2022/03/29 03:30:22;;;;;;;27.63;16.10;;;6.60;99.90;;;;;;5094584;28;20056;-77
2022/03/29 03:32:48;;;;;;;27.00;17.30;;;6.60;99.90;;;;;;5094282;28;20090;-78
2022/03/29 03:35:15;;;;;;;27.33;16.67;;;6.60;99.90;;;;;;5093998;28;20051;-77
2022/03/29 03:37:41;;;;;;;24.65;16.35;;;6.60;99.90;;;;;;5094496;28;20055;-77
2022/03/29 03:40:09;;;;;;;27.10;17.10;;;6.60;99.90;;;;;;5094573;28;20134;-77
2022/03/29 03:42:37;;;;;;;30.60;16.52;;;6.60;99.90;;;;;;5111975;28;20043;-77
2022/03/29 03:45:03;;;;;;;27.25;16.27;;;6.60;99.90;;;;;;5094066;28;20055;-77
2022/03/29 03:47:30;;;;;;;31.50;17.23;;;6.60;99.90;;;;;;5094300;28;20088;-77
2022/03/29 03:49:56;;;;;;;30.80;16.50;;;6.60;99.90;;;;;;5093390;28;20391;-78
2022/03/29 03:52:21;;;;;;;24.98;16.73;;;6.60;99.90;;;;;;5094199;28;20050;-77
2022/03/29 03:54:47;;;;;;;27.55;16.88;;;6.60;99.90;;;;;;5094389;28;20070;-78
2022/03/29 03:57:13;;;;;;;27.90;16.33;;;6.60;99.90;;;;;;5093394;28;20485;-77
2022/03/29 03:59:38;;;;;;;23.58;16.48;;;6.70;99.90;;;;;;5112539;28;20036;-77
2022/03/29 04:02:04;;;;;;;27.10;16.30;;;6.60;99.90;;;;;;5112087;28;20046;-77
2022/03/29 04:04:30;;;;;;;27.90;16.48;;;6.60;99.90;;;;;;5110964;28;20055;-77
2022/03/29 04:06:55;;;;;;;27.77;17.00;;;6.60;99.90;;;;;;5100141;28;20039;-77
2022/03/29 04:09:21;;;;;;;32.75;18.50;;;6.60;99.90;;;;;;5098881;28;20048;-77
2022/03/29 04:11:47;;;;;;;29.52;16.98;;;6.60;99.90;;;;;;5086984;28;20055;-78
2022/03/29 04:14:15;;;;;;;26.25;16.88;;;6.60;99.90;;;;;;5112404;28;20043;-77
2022/03/29 04:16:40;;;;;;;26.40;17.33;;;6.60;99.90;;;;;;5103955;28;20491;-77
2022/03/29 04:19:06;;;;;;;29.90;19.17;;;6.60;99.90;;;;;;5073051;28;20047;-77
2022/03/29 04:21:32;;;;;;;29.77;15.95;;;6.50;99.90;;;;;;5091763;28;20478;-77
2022/03/29 04:23:57;;;;;;;25.88;17.50;;;6.50;99.90;;;;;;5090994;28;20550;-77
2022/03/29 04:26:23;;;;;;;29.42;17.35;;;6.50;99.90;;;;;;5091982;28;20031;-77
2022/03/29 04:28:49;;;;;;;26.77;17.13;;;6.50;99.90;;;;;;5091388;28;20044;-78
2022/03/29 04:31:14;;;;;;;30.20;17.77;;;6.60;99.90;;;;;;5072870;28;20040;-77
2022/03/29 04:33:41;;;;;;;25.35;17.10;;;6.60;99.90;;;;;;5091834;28;20082;-77
2022/03/29 04:36:06;;;;;;;26.95;17.88;;;6.60;99.90;;;;;;5073278;28;20192;-77
2022/03/29 04:38:32;;;;;;;39.00;18.02;;;6.60;99.90;;;;;;5091246;28;20056;-77
2022/03/29 04:40:58;;;;;;;25.35;16.33;;;6.60;99.90;;;;;;5073220;28;20036;-77
2022/03/29 04:43:23;;;;;;;31.67;19.08;;;6.60;99.90;;;;;;5091741;28;20051;-77
2022/03/29 04:45:49;;;;;;;33.17;18.15;;;6.60;99.90;;;;;;5076855;28;20051;-77
2022/03/29 04:48:15;;;;;;;33.47;19.70;;;6.60;99.90;;;;;;5093691;28;20052;-77
2022/03/29 04:50:40;;;;;;;36.20;20.20;;;6.60;99.90;;;;;;5089087;28;20177;-77
2022/03/29 04:53:07;;;;;;;28.88;18.75;;;6.60;99.90;;;;;;5090727;28;20865;-77
2022/03/29 04:55:33;;;;;;;31.25;18.60;;;6.60;99.90;;;;;;5091621;28;20406;-77
2022/03/29 04:58:00;;;;;;;28.00;18.23;;;6.60;99.90;;;;;;5099490;28;20043;-77
2022/03/29 05:00:26;;;;;;;35.90;19.80;;;6.60;99.90;;;;;;5096972;28;20436;-77
2022/03/29 05:02:52;;;;;;;25.77;18.55;;;6.60;99.90;;;;;;5106613;28;20083;-76
2022/03/29 05:05:17;;;;;;;33.42;17.83;;;6.60;99.90;;;;;;5091806;28;20125;-77
2022/03/29 05:07:44;;;;;;;38.45;20.02;;;6.50;99.90;;;;;;5115402;28;20096;-77
2022/03/29 05:10:14;;;;;;;39.83;19.15;;;6.50;99.90;;;;;;5114130;27;20044;-77
2022/03/29 05:12:51;;;;;;;34.80;19.77;;;6.50;99.90;;;;;;5080378;28;20079;-77
2022/03/29 05:15:18;;;;;;;26.90;17.30;;;6.50;99.90;;;;;;5083484;28;20047;-77
2022/03/29 05:17:45;;;;;;;30.45;18.80;;;6.50;99.90;;;;;;5077320;28;20040;-77
2022/03/29 05:20:11;;;;;;;29.00;18.88;;;6.50;99.90;;;;;;5076149;28;20040;-77
2022/03/29 05:22:45;;;;;;;33.15;18.67;;;6.50;99.90;;;;;;5097563;27;20123;-78
2022/03/29 05:25:16;;;;;;;35.72;20.38;;;6.50;99.90;;;;;;5095134;28;20366;-77
2022/03/29 05:27:42;;;;;;;36.22;20.25;;;6.50;99.90;;;;;;5101852;28;20044;-76
2022/03/29 05:30:09;;;;;;;27.42;19.20;;;6.60;99.90;;;;;;5076293;28;20044;-77
2022/03/29 05:32:35;;;;;;;38.05;20.80;;;6.50;99.90;;;;;;5087075;28;20052;-76
2022/03/29 05:35:01;;;;;;;32.75;19.83;;;6.50;99.90;;;;;;5095885;28;20478;-77
2022/03/29 05:37:26;;;;;;;26.85;18.48;;;6.60;99.90;;;;;;5096875;28;20051;-76
2022/03/29 05:39:52;;;;;;;36.92;20.98;;;6.60;99.90;;;;;;5084985;28;20418;-76
2022/03/29 05:42:17;;;;;;;34.45;19.75;;;6.60;99.90;;;;;;5109182;28;20055;-76
2022/03/29 05:44:43;;;;;;;34.75;17.60;;;6.60;99.90;;;;;;5094806;28;20067;-76
2022/03/29 05:49:57;;;;;;;32.97;20.75;;;6.60;99.90;;;;;;5077974;28;20052;-76
2022/03/29 05:52:23;;;;;;;30.73;18.27;;;8.40;99.90;;;;;;5078767;28;20529;-76
2022/03/29 05:54:49;;;;;;;38.95;18.45;;;6.60;99.90;;;;;;5081559;28;20047;-76
2022/03/29 05:57:16;;;;;;;32.13;19.30;;;6.60;99.90;;;;;;5092321;28;20048;-76
2022/03/29 05:59:42;;;;;;;28.77;18.17;;;6.60;99.90;;;;;;5088610;28;20032;-76
2022/03/29 06:02:08;;;;;;;37.40;21.40;;;7.10;99.90;;;;;;5075445;28;20044;-76
2022/03/29 06:04:35;;;;;;;34.50;20.10;;;6.60;99.90;;;;;;5093580;28;20368;-76
2022/03/29 06:07:01;;;;;;;31.42;20.73;;;6.60;99.90;;;;;;5093788;28;20044;-76
2022/03/29 06:09:27;;;;;;;31.73;20.33;;;6.60;99.90;;;;;;5085859;28;20127;-76
2022/03/29 06:11:53;;;;;;;30.38;19.42;;;6.60;99.90;;;;;;5072711;28;20135;-76
2022/03/29 06:14:18;;;;;;;31.88;19.83;;;6.60;99.90;;;;;;5072581;28;20123;-76
2022/03/29 06:16:44;;;;;;;36.97;21.08;;;6.60;99.90;;;;;;5075266;28;20105;-76
2022/03/29 06:19:10;;;;;;;32.53;20.85;;;6.60;99.90;;;;;;5086092;28;20093;-76
2022/03/29 06:21:37;;;;;;;31.77;20.90;;;6.60;99.90;;;;;;5082547;28;20045;-76
2022/03/29 06:24:05;;;;;;;32.75;20.35;;;6.60;99.90;;;;;;5088529;28;20115;-76
2022/03/29 06:26:31;;;;;;;34.42;21.63;;;6.70;99.90;;;;;;5086782;28;20083;-76
2022/03/29 06:28:58;;;;;;;37.92;19.63;;;6.70;99.90;;;;;;5093219;28;20106;-76
2022/03/29 06:31:24;;;;;;;33.08;19.50;;;6.70;99.90;;;;;;5083378;28;20135;-76
2022/03/29 06:33:49;;;;;;;37.70;20.75;;;6.70;99.90;;;;;;5072008;28;20105;-76
2022/03/29 06:36:16;;;;;;;28.27;18.25;;;6.70;99.90;;;;;;5072274;28;20123;-76
2022/03/29 06:38:43;;;;;;;31.25;19.35;;;6.80;99.90;;;;;;5072887;28;20048;-76
2022/03/29 06:41:10;;;;;;;33.10;20.77;;;6.80;99.90;;;;;;5072951;28;20051;-77
2022/03/29 06:43:36;;;;;;;30.67;20.45;;;6.80;99.90;;;;;;5076250;28;20056;-76
2022/03/29 06:46:05;;;;;;;35.80;21.77;;;6.80;99.90;;;;;;5080912;28;20048;-76
2022/03/29 06:48:31;;;;;;;35.17;21.75;;;6.80;99.90;;;;;;5086344;28;20076;-76
2022/03/29 06:50:57;;;;;;;34.13;20.10;;;6.80;99.90;;;;;;5082736;28;20080;-77
2022/03/29 06:53:22;;;;;;;32.47;21.38;;;6.80;99.90;;;;;;5078359;28;20043;-76
2022/03/29 06:55:50;;;;;;;44.70;21.88;;;6.90;99.90;;;;;;5074536;28;20044;-76
2022/03/29 06:58:16;;;;;;;31.83;20.08;;;6.80;99.90;;;;;;5073193;28;20057;-77
2022/03/29 07:00:42;;;;;;;34.15;22.45;;;6.90;99.90;;;;;;5074851;28;20036;-76
2022/03/29 07:03:10;;;;;;;38.63;21.42;;;6.90;99.90;;;;;;5082120;28;20075;-76
2022/03/29 07:05:38;;;;;;;34.88;21.35;;;6.90;99.90;;;;;;5089303;28;20072;-76
2022/03/29 07:08:05;;;;;;;33.95;20.23;;;6.90;99.90;;;;;;5092023;28;20061;-75
2022/03/29 07:13:15;;;;;;;38.15;20.80;;;6.90;99.90;;;;;;5070878;28;20430;-76
2022/03/29 07:15:41;;;;;;;36.42;21.30;;;7.00;99.90;;;;;;5071401;28;20090;-76
2022/03/29 07:18:07;;;;;;;35.63;21.30;;;6.90;99.90;;;;;;5071344;28;20135;-76
2022/03/29 07:20:33;;;;;;;31.58;18.40;;;6.90;99.90;;;;;;5071320;28;20495;-76
2022/03/29 07:23:02;;;;;;;31.90;20.25;;;7.00;99.90;;;;;;5089621;28;20469;-75
2022/03/29 07:25:31;;;;;;;37.42;20.38;;;7.00;99.90;;;;;;5077208;28;20047;-76
2022/03/29 07:27:57;;;;;;;31.55;19.70;;;7.10;99.90;;;;;;5071793;28;20048;-75
2022/03/29 07:30:23;;;;;;;32.08;18.48;;;7.10;99.90;;;;;;5072493;28;20045;-76
2022/03/29 07:32:52;;;;;;;38.15;21.67;;;7.20;99.90;;;;;;5080775;28;20382;-76
2022/03/29 07:35:19;;;;;;;32.80;17.10;;;7.30;99.90;;;;;;5091880;28;20044;-76
2022/03/29 07:37:46;;;;;;;34.00;19.25;;;7.40;99.90;;;;;;5074795;28;20057;-76
2022/03/29 07:40:14;;;;;;;35.78;20.83;;;7.40;99.90;;;;;;5083758;28;20124;-75
2022/03/29 07:42:40;;;;;;;32.63;17.83;;;7.50;99.90;;;;;;5073320;28;20055;-75
2022/03/29 07:45:08;;;;;;;28.48;18.52;;;7.60;99.90;;;;;;5080732;28;20044;-74
2022/03/29 07:47:34;;;;;;;37.08;19.30;;;7.60;99.90;;;;;;5084312;28;20039;-74
2022/03/29 07:50:05;;;;;;;36.78;19.67;;;7.70;99.90;;;;;;5085675;28;20059;-74
2022/03/29 07:52:30;;;;;;;29.52;18.67;;;7.70;99.90;;;;;;5083213;28;20466;-75
2022/03/29 07:54:56;;;;;;;27.50;17.92;;;7.70;99.90;;;;;;5085662;28;20047;-75
2022/03/29 07:57:22;;;;;;;32.30;18.13;;;7.80;99.90;;;;;;5111504;28;20070;-75
2022/03/29 07:59:47;;;;;;;26.92;16.27;;;7.80;99.90;;;;;;5091614;28;20055;-77
2022/03/29 08:02:13;;;;;;;27.25;16.92;;;7.80;99.90;;;;;;5098132;28;20055;-78
2022/03/29 08:04:39;;;;;;;33.33;18.52;;;7.90;99.90;;;;;;5092077;28;20123;-75
2022/03/29 08:07:08;;;;;;;36.70;18.45;;;7.90;99.90;;;;;;5090868;28;20582;-76
2022/03/29 08:09:34;;;;;;;32.58;17.35;;;7.80;99.90;;;;;;5090769;28;20403;-75
2022/03/29 08:12:00;;;;;;;26.60;16.27;;;7.80;99.90;;;;;;5073505;28;20181;-71
2022/03/29 08:14:26;;;;;;;25.30;15.30;;;7.90;99.90;;;;;;5094716;28;20393;-72
2022/03/29 08:16:56;;;;;;;28.20;16.27;;;7.90;99.90;;;;;;5092676;28;20498;-70
2022/03/29 08:19:22;;;;;;;35.08;16.98;;;7.90;99.90;;;;;;5074564;28;20337;-79
2022/03/29 08:21:49;;;;;;;29.88;16.60;;;7.90;99.90;;;;;;5082073;28;20438;-74
2022/03/29 08:24:20;;;;;;;29.33;14.98;;;7.90;99.90;;;;;;5111591;28;20047;-79
2022/03/29 08:26:46;;;;;;;31.80;16.02;;;7.80;99.90;;;;;;5091789;28;20467;-74
2022/03/29 08:29:12;;;;;;;30.77;14.20;;;7.80;99.90;;;;;;5091926;28;20048;-83
2022/03/29 08:31:41;;;;;;;27.45;15.80;;;7.80;99.90;;;;;;5090919;28;20131;-76
2022/03/29 08:34:07;;;;;;;31.77;16.15;;;7.90;99.90;;;;;;5099770;28;20052;-79
2022/03/29 08:36:33;;;;;;;28.13;15.23;;;8.00;99.90;;;;;;5092200;28;20061;-84
2022/03/29 08:38:59;;;;;;;27.95;12.95;;;8.10;99.90;;;;;;5109977;28;20478;-76
2022/03/29 08:41:31;;;;;;;25.70;11.35;;;8.10;99.90;;;;;;5095740;28;20407;-76
2022/03/29 08:43:57;;;;;;;30.65;13.00;;;8.10;99.90;;;;;;5096509;28;20100;-76
2022/03/29 08:46:23;;;;;;;26.20;12.57;;;8.00;99.90;;;;;;5097170;28;20055;-73
2022/03/29 08:48:50;;;;;;;30.25;11.55;;;8.00;99.90;;;;;;5115633;28;20051;-75
2022/03/29 08:51:16;;;;;;;23.50;11.80;;;8.00;99.90;;;;;;5088387;28;20456;-75
2022/03/29 08:53:46;;;;;;;18.23;10.20;;;7.90;99.90;;;;;;5114114;27;20119;-75
2022/03/29 08:56:12;;;;;;;25.48;10.70;;;7.90;99.90;;;;;;5094124;28;20048;-76
2022/03/29 08:58:37;;;;;;;20.17;10.25;;;7.90;99.90;;;;;;5094810;28;20131;-76
2022/03/29 09:01:03;;;;;;;20.10;8.68;;;7.90;99.90;;;;;;5095068;28;20040;-76
2022/03/29 09:03:29;;;;;;;23.58;9.73;;;8.00;99.90;;;;;;5076215;28;20096;-75
2022/03/29 09:06:08;;;;;;;25.80;10.60;;;8.00;99.90;;;;;;5094346;28;20047;-76
2022/03/29 09:08:47;;;;;;;22.08;9.63;;;8.00;99.90;;;;;;5076234;28;20048;-76
2022/03/29 09:11:14;;;;;;;35.53;10.85;;;8.20;99.90;;;;;;5095021;28;20126;-76
2022/03/29 09:13:40;;;;;;;24.73;10.05;;;8.20;99.90;;;;;;5076018;28;20060;-76
2022/03/29 09:16:34;;;;;;;25.73;10.25;;;8.20;99.90;;;;;;5095068;28;20064;-77
2022/03/29 09:19:00;;;;;;;25.77;9.30;;;8.20;99.90;;;;;;5094908;28;20470;-76
2022/03/29 09:21:27;;;;;;;24.23;9.60;;;8.30;99.90;;;;;;5075657;28;20064;-76
2022/03/29 09:24:10;;;;;;;30.73;9.70;;;8.40;99.90;;;;;;5094792;28;20101;-76
2022/03/29 09:26:41;;;;;;;22.17;8.50;;;8.50;99.90;;;;;;5094016;28;20479;-76
2022/03/29 09:29:21;;;;;;;28.80;9.57;;;8.60;99.90;;;;;;5076471;28;20051;-76
2022/03/29 09:32:00;;;;;;;23.02;8.48;;;8.60;99.90;;;;;;5094486;28;20368;-76
2022/03/29 09:34:28;;;;;;;25.55;9.80;;;8.70;99.90;;;;;;5076091;28;20051;-76
2022/03/29 09:36:53;;;;;;;23.90;9.40;;;8.70;99.90;;;;;;5076475;28;20048;-76
2022/03/29 09:39:29;;;;;;;23.77;8.18;;;8.80;99.90;;;;;;5076799;28;20051;-76
2022/03/29 09:42:00;;;;;;;22.33;8.50;;;8.90;99.90;;;;;;5075496;28;20051;-76
2022/03/29 09:44:48;;;;;;;35.38;8.77;;;8.90;99.90;;;;;;5094168;28;20093;-76
2022/03/29 09:47:20;;;;;;;24.20;9.68;;;8.90;99.90;;;;;;5076659;28;20431;-76
2022/03/29 09:49:53;;;;;;;23.45;8.73;;;9.00;99.90;;;;;;5099943;27;20063;-76
2022/03/29 09:52:20;;;;;;;24.13;8.90;;;9.00;99.90;;;;;;5120062;27;20371;-74
2022/03/29 09:55:04;;;;;;;23.67;8.98;;;9.00;99.90;;;;;;5125870;27;20593;-73
2022/03/29 09:57:38;;;;;;;27.70;9.10;;;9.10;99.90;;;;;;5105685;27;20494;-73
2022/03/29 10:00:08;;;;;;;22.30;8.48;;;9.00;99.90;;;;;;5101292;28;20046;-73
2022/03/29 10:02:40;;;;;;;21.52;8.50;;;9.00;99.90;;;;;;5083837;28;20048;-73
2022/03/29 10:05:07;;;;;;;19.60;8.40;;;9.00;99.90;;;;;;5101029;28;20044;-72
2022/03/29 10:07:44;;;;;;;20.98;8.15;;;8.90;99.90;;;;;;5093683;28;20050;-72
2022/03/29 10:10:10;;;;;;;25.42;9.43;;;8.90;99.90;;;;;;5074750;28;20036;-73
2022/03/29 10:12:36;;;;;;;22.45;7.75;;;8.90;99.90;;;;;;5075649;28;20440;-72
2022/03/29 10:15:03;;;;;;;20.67;8.07;;;9.00;99.90;;;;;;5107803;27;20039;-74
2022/03/29 10:17:29;;;;;;;25.55;8.68;;;9.00;99.90;;;;;;5117875;27;20032;-75
2022/03/29 10:19:58;;;;;;;18.38;7.18;;;9.10;99.90;;;;;;5096106;27;20051;-75
2022/03/29 10:22:24;;;;;;;23.58;8.50;;;9.20;99.90;;;;;;5106974;27;20077;-77
2022/03/29 10:24:50;;;;;;;20.58;7.18;;;9.40;99.90;;;;;;5109135;27;20092;-76
2022/03/29 10:27:17;;;;;;;23.65;8.02;;;9.60;99.90;;;;;;5101322;28;20052;-74
2022/03/29 10:29:43;;;;;;;20.52;7.85;;;9.80;99.90;;;;;;5102363;27;20103;-74
2022/03/29 10:32:10;;;;;;;17.73;8.27;;;10.00;99.90;;;;;;5113778;28;20489;-74
2022/03/29 10:34:42;;;;;;;17.75;7.75;;;10.10;99.90;;;;;;5093712;27;20046;-74
2022/03/29 10:37:10;;;;;;;25.92;7.88;;;10.20;99.90;;;;;;5102207;28;20048;-76
2022/03/29 10:39:49;;;;;;;16.30;7.93;;;10.30;99.90;;;;;;5093363;28;20040;-74
2022/03/29 10:42:33;;;;;;;15.50;7.00;;;10.30;99.90;;;;;;5077328;28;20051;-74
2022/03/29 10:44:59;;;;;;;24.33;8.43;;;10.30;99.90;;;;;;5073816;28;20298;-74
2022/03/29 10:47:26;;;;;;;17.85;7.35;;;10.30;99.90;;;;;;5104553;28;20075;-74
2022/03/29 10:49:52;;;;;;;28.45;7.18;;;10.30;99.90;;;;;;5107911;28;20051;-73
2022/03/29 10:52:21;;;;;;;25.77;7.35;;;10.30;99.90;;;;;;5112763;28;20505;-72
2022/03/29 10:54:47;;;;;;;24.20;8.13;;;10.50;99.90;;;;;;5108866;28;20047;-72
2022/03/29 10:57:34;;;;;;;18.63;7.13;;;10.50;99.90;;;;;;5093773;28;20516;-72
2022/03/29 11:00:12;;;;;;;20.52;7.55;;;10.60;99.90;;;;;;5093995;28;20192;-72
2022/03/29 11:03:20;;;;;;;33.10;9.65;;;10.70;99.90;;;;;;5112018;28;20055;-72
2022/03/29 11:06:10;;;;;;;21.33;8.70;;;10.70;99.90;;;;;;5110912;28;20083;-72
2022/03/29 11:08:37;;;;;;;14.07;7.18;;;10.70;99.90;;;;;;5094825;28;20094;-72
2022/03/29 11:11:03;;;;;;;20.10;7.72;;;10.70;99.90;;;;;;5094605;28;20054;-70
2022/03/29 11:13:31;;;;;;;18.45;7.78;;;10.80;99.90;;;;;;5105882;28;20079;-72
2022/03/29 11:16:02;;;;;;;18.90;7.57;;;10.70;99.90;;;;;;5076981;28;20127;-74
2022/03/29 11:18:30;;;;;;;20.67;7.88;;;10.70;99.90;;;;;;5082648;28;20050;-74
2022/03/29 11:21:02;;;;;;;23.00;7.97;;;10.60;99.90;;;;;;5102237;28;20118;-74
2022/03/29 11:23:33;;;;;;;23.42;8.15;;;10.50;99.90;;;;;;5081627;28;20051;-72
2022/03/29 11:26:05;;;;;;;18.98;8.30;;;10.50;99.90;;;;;;5099034;28;20054;-74
2022/03/29 11:28:31;;;;;;;21.10;8.38;;;10.50;99.90;;;;;;5081482;28;20051;-73
2022/03/29 11:30:57;;;;;;;13.77;7.75;;;10.30;99.90;;;;;;5102683;28;20131;-72
2022/03/29 11:33:34;;;;;;;19.77;7.72;;;10.20;99.90;;;;;;5094453;28;20114;-73
2022/03/29 11:36:04;;;;;;;22.02;8.30;;;10.20;99.90;;;;;;5089791;28;20130;-72
2022/03/29 11:38:33;;;;;;;15.70;7.68;;;10.10;99.90;;;;;;5081081;28;20460;-73
2022/03/29 11:41:00;;;;;;;16.75;7.43;;;9.90;99.90;;;;;;5110633;28;20477;-74
2022/03/29 11:43:26;;;;;;;20.38;7.70;;;9.80;99.90;;;;;;5093884;28;20058;-75
2022/03/29 11:45:53;;;;;;;14.93;6.82;;;9.80;99.90;;;;;;5093943;28;20043;-73
2022/03/29 11:48:21;;;;;;;20.00;7.65;;;9.80;99.90;;;;;;5110808;27;20112;-72
2022/03/29 11:50:58;;;;;;;22.63;8.18;;;9.80;99.90;;;;;;5082040;28;20052;-74
2022/03/29 11:53:35;;;;;;;21.88;8.15;;;9.90;99.90;;;;;;5099713;28;20552;-72
2022/03/29 11:56:04;;;;;;;17.42;8.07;;;9.90;99.90;;;;;;5078675;28;20090;-73
2022/03/29 11:58:37;;;;;;;18.05;6.95;;;10.00;99.90;;;;;;5097368;28;20044;-73
2022/03/29 12:01:04;;;;;;;26.25;8.48;;;10.10;99.90;;;;;;5079374;28;20055;-74
2022/03/29 12:03:35;;;;;;;18.73;7.50;;;10.90;99.90;;;;;;5076788;28;20052;-75
2022/03/29 12:06:15;;;;;;;22.57;7.13;;;10.00;99.90;;;;;;5112041;28;20428;-73
2022/03/29 12:08:53;;;;;;;18.50;7.25;;;10.00;99.90;;;;;;5090773;28;20482;-73
2022/03/29 12:11:23;;;;;;;25.27;7.45;;;10.00;99.90;;;;;;5077239;28;20130;-73
2022/03/29 12:14:02;;;;;;;25.88;7.55;;;10.00;99.90;;;;;;5087524;28;20120;-73
2022/03/29 12:16:29;;;;;;;20.35;7.40;;;10.00;99.90;;;;;;5110833;28;20128;-72
2022/03/29 12:18:55;;;;;;;24.83;8.02;;;10.10;99.90;;;;;;5092977;28;20437;-72
2022/03/29 12:21:23;;;;;;;20.23;7.05;;;10.00;99.90;;;;;;5111340;28;20486;-72
2022/03/29 12:23:57;;;;;;;17.58;7.03;;;10.00;99.90;;;;;;5083045;28;20052;-71
2022/03/29 12:26:23;;;;;;;19.80;6.78;;;10.00;99.90;;;;;;5101401;28;20135;-72
2022/03/29 12:28:49;;;;;;;18.25;7.60;;;10.00;99.90;;;;;;5102052;28;20153;-74
2022/03/29 12:31:18;;;;;;;19.50;7.15;;;10.20;99.90;;;;;;5101437;28;20039;-73
2022/03/29 12:33:45;;;;;;;13.43;7.43;;;10.30;99.90;;;;;;5096755;28;20092;-73
2022/03/29 12:36:15;;;;;;;17.63;7.43;;;10.40;99.90;;;;;;5079640;28;20048;-73
2022/03/29 12:38:48;;;;;;;16.42;7.43;;;10.50;99.90;;;;;;5073420;28;20470;-72
2022/03/29 12:41:31;;;;;;;23.63;7.93;;;10.60;99.90;;;;;;5073607;28;20105;-73
2022/03/29 12:43:57;;;;;;;21.35;8.30;;;10.60;99.90;;;;;;5096358;28;20127;-73
2022/03/29 12:46:23;;;;;;;15.10;7.45;;;10.60;99.90;;;;;;5075258;28;20127;-73
2022/03/29 12:48:49;;;;;;;16.73;7.68;;;10.60;99.90;;;;;;5075806;28;20048;-73